Indianapolis, Indiana
Traffic Map
Current Weather Conditions
Indianapolis, Indiana
Broken Clouds
Broken Clouds
-1°
Feels Like: -5°
Wind Chill: -5° Ceiling: 19000
Heat Index: -1° Visibility: 10mi
Dew Point: -5° Wind: 8mph
Humidity: 75% Direction: 190° (S)
Pressure: 30in Gusts: 0mph
Raw Report DataKIND 111454Z 19007KT 10SM FEW055 SCT140 BKN190 M01/M05 A3000 RMK AO2 SLP167 T10111050 58023
Traffic Incident Summary
Active as of:
Severity:
Category:
InformationThere was an issue retrieving the traffic information for this location. Please try a different location or try again shortly.
Advertisements